createdAt,value
2019-05-13T00:00:47.388Z,9.40
2019-05-13T00:03:16.150Z,9.40
2019-05-13T00:05:44.882Z,9.40
2019-05-13T00:08:14.160Z,9.30
2019-05-13T00:10:43.762Z,9.30
2019-05-13T00:13:14.492Z,9.20
2019-05-13T00:15:44.246Z,9.10
2019-05-13T00:18:14.456Z,9.10
2019-05-13T00:20:44.489Z,9.00
2019-05-13T00:23:14.265Z,9.00
2019-05-13T00:25:44.439Z,9.00
2019-05-13T00:28:14.513Z,8.90
2019-05-13T00:30:44.493Z,8.90
2019-05-13T00:33:14.155Z,8.80
2019-05-13T00:35:44.344Z,8.80
2019-05-13T00:38:14.101Z,8.70
2019-05-13T00:40:44.306Z,8.70
2019-05-13T00:43:14.255Z,8.70
2019-05-13T00:45:44.444Z,8.70
2019-05-13T00:48:14.272Z,8.70
2019-05-13T00:50:44.310Z,8.60
2019-05-13T00:53:13.658Z,8.60
2019-05-13T00:55:44.587Z,8.50
2019-05-13T00:58:14.245Z,8.50
2019-05-13T01:00:44.530Z,8.40
2019-05-13T01:03:14.213Z,8.40
2019-05-13T01:05:44.496Z,8.40
2019-05-13T01:08:14.608Z,8.40
2019-05-13T01:10:45.096Z,8.40
2019-05-13T01:13:14.183Z,8.40
2019-05-13T01:15:44.282Z,8.30
2019-05-13T01:18:14.218Z,8.30
2019-05-13T01:20:43.869Z,8.30
2019-05-13T01:23:14.228Z,8.20
2019-05-13T01:25:44.525Z,8.20
2019-05-13T01:28:13.692Z,8.10
2019-05-13T01:30:43.809Z,8.10
2019-05-13T01:33:14.428Z,8.00
2019-05-13T01:35:44.585Z,8.00
2019-05-13T01:38:14.124Z,7.90
2019-05-13T01:40:44.022Z,7.90
2019-05-13T01:43:14.493Z,7.90
2019-05-13T01:45:44.156Z,7.80
2019-05-13T01:48:14.291Z,7.70
2019-05-13T01:50:44.461Z,7.70
2019-05-13T01:53:14.457Z,7.70
2019-05-13T01:55:44.264Z,7.60
2019-05-13T01:58:14.579Z,7.60
2019-05-13T02:00:44.444Z,7.60
2019-05-13T02:03:14.694Z,7.60
2019-05-13T02:05:44.422Z,7.60
2019-05-13T02:08:14.296Z,7.60
2019-05-13T02:10:54.293Z,7.50
2019-05-13T02:13:24.740Z,7.50
2019-05-13T02:15:55.589Z,7.50
2019-05-13T02:18:24.922Z,7.40
2019-05-13T02:20:55.237Z,7.40
2019-05-13T02:23:25.228Z,7.40
2019-05-13T02:25:54.747Z,7.40
2019-05-13T02:28:24.866Z,7.30
2019-05-13T02:30:55.962Z,7.20
2019-05-13T02:33:24.742Z,7.20
2019-05-13T02:35:54.254Z,7.10
2019-05-13T02:38:28.716Z,7.10
2019-05-13T02:40:54.018Z,7.00
2019-05-13T02:43:24.211Z,7.00
2019-05-13T02:45:54.345Z,6.90
2019-05-13T02:48:24.233Z,6.90
2019-05-13T02:50:54.179Z,6.90
2019-05-13T02:53:24.206Z,6.90
2019-05-13T02:55:53.600Z,6.90
2019-05-13T02:58:24.311Z,6.90
2019-05-13T03:00:54.088Z,6.80
2019-05-13T03:03:23.763Z,6.80
2019-05-13T03:05:53.952Z,6.80
2019-05-13T03:08:39.295Z,6.80
2019-05-13T03:10:54.075Z,6.70
2019-05-13T03:13:23.987Z,6.70
2019-05-13T03:16:12.795Z,6.70
2019-05-13T03:18:43.213Z,6.60
2019-05-13T03:21:12.696Z,6.60
2019-05-13T03:23:44.187Z,6.50
2019-05-13T03:26:12.954Z,6.50
2019-05-13T03:28:43.514Z,6.40
2019-05-13T03:31:17.012Z,6.40
2019-05-13T03:33:47.109Z,6.50
2019-05-13T03:36:17.396Z,6.50
2019-05-13T03:39:01.726Z,6.40
2019-05-13T03:41:18.151Z,6.40
2019-05-13T03:43:47.653Z,6.50
2019-05-13T03:46:22.443Z,6.50
2019-05-13T03:48:54.185Z,6.50
2019-05-13T03:51:23.588Z,6.50
2019-05-13T03:53:53.747Z,6.40
2019-05-13T03:56:23.858Z,6.40
2019-05-13T03:58:53.914Z,6.30
2019-05-13T04:01:23.537Z,6.30
2019-05-13T04:03:53.016Z,6.30
2019-05-13T04:06:23.202Z,6.30
2019-05-13T04:08:54.139Z,6.30
2019-05-13T04:11:23.730Z,6.30
2019-05-13T04:13:53.282Z,6.30
2019-05-13T04:16:23.664Z,6.30
2019-05-13T04:18:53.871Z,6.30
2019-05-13T04:21:23.125Z,6.30
2019-05-13T04:23:53.527Z,6.30
2019-05-13T04:26:23.796Z,6.30
2019-05-13T04:28:53.541Z,6.30
2019-05-13T04:31:23.007Z,6.30
2019-05-13T04:33:53.423Z,6.30
2019-05-13T04:36:23.820Z,6.30
2019-05-13T04:38:53.244Z,6.30
2019-05-13T04:41:23.242Z,6.30
2019-05-13T04:43:53.936Z,6.30
2019-05-13T04:46:23.296Z,6.40
2019-05-13T04:48:53.197Z,6.50
2019-05-13T04:51:23.379Z,6.50
2019-05-13T04:53:56.906Z,6.50
2019-05-13T04:56:23.421Z,6.60
2019-05-13T04:58:52.973Z,6.70
2019-05-13T05:01:55.249Z,6.70
2019-05-13T05:04:30.769Z,6.70
2019-05-13T05:07:14.495Z,6.70
2019-05-13T05:10:22.071Z,6.70
2019-05-13T05:13:12.920Z,6.70
2019-05-13T05:16:32.548Z,6.80
2019-05-13T05:19:44.976Z,6.90
2019-05-13T05:22:22.207Z,6.90
2019-05-13T05:25:13.547Z,7.00
2019-05-13T05:28:29.264Z,7.20
2019-05-13T05:31:11.566Z,7.20
2019-05-13T05:34:21.912Z,7.20
2019-05-13T05:37:11.799Z,7.30
2019-05-13T05:39:42.056Z,7.30
2019-05-13T05:42:14.301Z,7.30
2019-05-13T05:44:45.097Z,7.40
2019-05-13T05:47:15.954Z,7.40
2019-05-13T05:49:46.199Z,7.50
2019-05-13T05:52:16.383Z,7.50
2019-05-13T05:54:48.013Z,7.60
2019-05-13T05:57:19.428Z,7.60
2019-05-13T05:59:51.721Z,7.60
2019-05-13T06:02:23.195Z,7.70
2019-05-13T06:04:54.464Z,7.80
2019-05-13T06:07:23.535Z,7.80
2019-05-13T06:09:52.756Z,7.80
2019-05-13T06:12:22.421Z,7.90
2019-05-13T06:14:52.430Z,8.00
2019-05-13T06:17:22.080Z,8.00
2019-05-13T06:19:51.353Z,8.10
2019-05-13T06:22:21.782Z,8.20
2019-05-13T06:24:52.178Z,8.30
2019-05-13T06:27:21.851Z,8.40
2019-05-13T06:29:52.925Z,8.40
2019-05-13T06:32:26.059Z,8.40
2019-05-13T06:34:52.764Z,8.50
2019-05-13T06:37:22.127Z,8.50
2019-05-13T06:39:51.297Z,8.60
2019-05-13T06:42:22.210Z,8.70
2019-05-13T06:44:51.507Z,8.70
2019-05-13T06:47:22.015Z,8.90
2019-05-13T06:49:51.774Z,9.00
2019-05-13T06:52:21.197Z,9.00
2019-05-13T06:54:52.038Z,9.00
2019-05-13T06:57:21.972Z,9.20
2019-05-13T06:59:52.338Z,9.30
2019-05-13T07:02:22.007Z,9.30
2019-05-13T07:04:51.685Z,9.30
2019-05-13T07:07:21.868Z,9.50
2019-05-13T07:09:51.735Z,9.60
2019-05-13T07:12:21.889Z,9.60
2019-05-13T07:14:51.832Z,9.40
2019-05-13T07:17:22.250Z,9.20
2019-05-13T07:19:51.991Z,9.40
2019-05-13T07:22:22.955Z,9.60
2019-05-13T07:24:52.066Z,9.60
2019-05-13T07:27:22.938Z,9.70
2019-05-13T07:29:55.431Z,9.70
2019-05-13T07:32:22.438Z,9.90
2019-05-13T07:34:53.277Z,10.00
2019-05-13T07:37:22.128Z,9.80
2019-05-13T07:39:52.965Z,10.20
2019-05-13T07:42:22.329Z,10.30
2019-05-13T07:44:52.204Z,10.30
2019-05-13T07:47:22.251Z,10.30
2019-05-13T07:49:52.280Z,10.30
2019-05-13T07:52:22.714Z,10.50
2019-05-13T07:54:52.171Z,10.60
2019-05-13T07:57:21.573Z,10.70
2019-05-13T07:59:52.373Z,10.70
2019-05-13T08:02:21.748Z,10.90
2019-05-13T08:04:53.061Z,10.90
2019-05-13T08:07:22.575Z,10.90
2019-05-13T08:09:56.075Z,11.00
2019-05-13T08:12:23.496Z,11.10
2019-05-13T08:14:55.537Z,11.20
2019-05-13T08:17:27.563Z,11.30
2019-05-13T08:19:56.785Z,11.30
2019-05-13T08:22:25.792Z,11.40
2019-05-13T08:24:54.794Z,11.40
2019-05-13T08:27:30.247Z,11.60
2019-05-13T08:29:54.191Z,11.50
2019-05-13T08:32:23.023Z,11.70
2019-05-13T08:35:00.896Z,11.70
2019-05-13T08:37:22.685Z,11.80
2019-05-13T08:39:52.300Z,12.20
2019-05-13T08:42:23.539Z,12.30
2019-05-13T08:44:52.396Z,12.60
2019-05-13T08:47:22.424Z,12.90
2019-05-13T08:49:52.150Z,12.90
2019-05-13T08:52:21.915Z,13.00
2019-05-13T08:54:52.473Z,13.30
2019-05-13T08:57:22.175Z,13.40
2019-05-13T08:59:51.809Z,13.10
2019-05-13T09:02:22.223Z,13.10
2019-05-13T09:04:51.552Z,13.50
2019-05-13T09:07:23.612Z,14.10
2019-05-13T09:09:51.756Z,14.90
2019-05-13T09:12:32.238Z,15.70
2019-05-13T09:14:52.460Z,16.50
2019-05-13T09:17:21.571Z,15.90
2019-05-13T09:19:52.002Z,16.00
2019-05-13T09:22:21.446Z,16.70
2019-05-13T09:24:52.986Z,17.10
2019-05-13T09:27:22.552Z,16.80
2019-05-13T09:29:51.948Z,15.80
2019-05-13T09:32:21.623Z,15.60
2019-05-13T09:34:52.571Z,15.70
2019-05-13T09:37:22.398Z,16.50
2019-05-13T09:39:51.923Z,17.50
2019-05-13T09:42:21.627Z,17.30
2019-05-13T09:44:52.555Z,16.50
2019-05-13T09:47:21.858Z,16.60
2019-05-13T09:49:51.180Z,17.50
2019-05-13T09:52:22.430Z,17.60
2019-05-13T09:54:52.393Z,15.80
2019-05-13T09:57:22.054Z,15.30
2019-05-13T09:59:52.365Z,15.40
2019-05-13T10:02:22.435Z,15.50
2019-05-13T10:04:51.659Z,15.80
2019-05-13T10:07:22.968Z,15.90
2019-05-13T10:09:52.171Z,17.20
2019-05-13T10:12:24.365Z,18.20
2019-05-13T10:14:51.864Z,18.50
2019-05-13T10:17:22.108Z,18.60
2019-05-13T10:19:52.026Z,18.20
2019-05-13T10:22:21.998Z,17.40
2019-05-13T10:24:51.672Z,18.00
2019-05-13T10:27:22.387Z,18.80
2019-05-13T10:29:52.246Z,19.50
2019-05-13T10:32:21.924Z,19.40
2019-05-13T10:34:53.548Z,19.40
2019-05-13T10:37:22.736Z,18.30
2019-05-13T10:39:51.824Z,18.30
2019-05-13T10:42:22.257Z,18.70
2019-05-13T10:44:52.227Z,19.50
2019-05-13T10:47:22.763Z,19.30
2019-05-13T10:49:52.457Z,18.90
2019-05-13T10:52:22.995Z,19.20
2019-05-13T10:54:52.749Z,19.90
2019-05-13T10:57:21.900Z,19.90
2019-05-13T10:59:51.966Z,19.90
2019-05-13T11:02:22.276Z,19.50
2019-05-13T11:04:52.517Z,18.40
2019-05-13T11:07:22.468Z,17.50
2019-05-13T11:12:28.002Z,15.80
2019-05-13T11:14:55.192Z,15.60
2019-05-13T11:17:30.784Z,15.70
2019-05-13T11:19:54.461Z,15.50
2019-05-13T11:22:23.543Z,14.40
2019-05-13T11:24:52.479Z,15.10
2019-05-13T11:27:23.492Z,15.80
2019-05-13T11:29:52.493Z,17.90
2019-05-13T11:32:22.417Z,19.40
2019-05-13T11:34:53.034Z,20.10
2019-05-13T11:37:23.156Z,20.10
2019-05-13T11:39:52.609Z,19.10
2019-05-13T11:42:22.739Z,17.80
2019-05-13T11:44:52.751Z,16.80
2019-05-13T11:47:22.112Z,16.00
2019-05-13T11:49:52.272Z,15.40
2019-05-13T11:52:22.643Z,15.10
2019-05-13T11:54:53.782Z,14.80
2019-05-13T11:57:22.350Z,14.80
2019-05-13T11:59:52.674Z,15.30
2019-05-13T12:02:23.220Z,15.70
2019-05-13T12:04:53.814Z,15.60
2019-05-13T12:07:23.574Z,14.80
2019-05-13T12:09:52.534Z,14.90
2019-05-13T12:12:23.483Z,15.90
2019-05-13T12:15:20.413Z,17.60
2019-05-13T12:17:23.202Z,18.90
2019-05-13T12:19:54.327Z,19.10
2019-05-13T12:22:23.062Z,20.10
2019-05-13T12:24:52.220Z,21.20
2019-05-13T12:27:21.398Z,21.30
2019-05-13T12:29:52.944Z,21.80
2019-05-13T12:32:22.461Z,21.30
2019-05-13T12:34:52.718Z,19.90
2019-05-13T12:37:22.242Z,18.40
2019-05-13T12:39:53.008Z,17.70
2019-05-13T12:42:22.739Z,18.30
2019-05-13T12:45:03.891Z,18.70
2019-05-13T12:47:22.816Z,19.60
2019-05-13T12:49:51.808Z,20.10
2019-05-13T12:52:22.887Z,20.00
2019-05-13T12:54:52.859Z,20.20
2019-05-13T12:57:23.148Z,19.30
2019-05-13T12:59:52.251Z,19.10
2019-05-13T13:02:22.610Z,19.70
2019-05-13T13:05:09.198Z,19.70
2019-05-13T13:07:22.389Z,19.70
2019-05-13T13:09:53.623Z,19.10
2019-05-13T13:12:33.280Z,18.30
2019-05-13T13:14:54.481Z,17.30
2019-05-13T13:17:24.337Z,16.20
2019-05-13T13:19:54.867Z,16.20
2019-05-13T13:22:25.327Z,16.20
2019-05-13T13:24:57.321Z,16.40
2019-05-13T13:27:47.025Z,16.40
2019-05-13T13:30:03.121Z,16.30
2019-05-13T13:32:26.689Z,16.10
2019-05-13T13:34:55.887Z,16.90
2019-05-13T13:37:25.130Z,17.70
2019-05-13T13:39:55.011Z,18.10
2019-05-13T13:42:24.335Z,17.90
2019-05-13T13:44:54.078Z,17.50
2019-05-13T13:47:24.375Z,17.40
2019-05-13T13:49:53.928Z,16.90
2019-05-13T13:52:23.268Z,16.60
2019-05-13T13:55:02.751Z,16.10
2019-05-13T13:57:25.713Z,15.50
2019-05-13T14:00:20.006Z,14.90
2019-05-13T14:02:25.492Z,14.40
2019-05-13T14:04:55.164Z,14.60
2019-05-13T14:06:28.552Z,16.60
2019-05-13T14:07:35.111Z,14.60
2019-05-13T14:09:55.111Z,14.10
2019-05-13T14:12:24.059Z,14.20
2019-05-13T14:14:52.834Z,14.00
2019-05-13T14:17:22.046Z,14.30
2019-05-13T14:19:52.420Z,14.10
2019-05-13T14:22:21.900Z,14.00
2019-05-13T14:24:52.037Z,13.60
2019-05-13T14:27:22.427Z,13.60
2019-05-13T14:29:52.658Z,14.10
2019-05-13T14:32:22.452Z,14.70
2019-05-13T14:34:52.638Z,15.10
2019-05-13T14:37:22.331Z,15.60
2019-05-13T14:39:51.671Z,15.10
2019-05-13T14:42:22.805Z,14.80
2019-05-13T14:44:52.082Z,14.70
2019-05-13T14:47:21.774Z,14.70
2019-05-13T14:49:52.140Z,14.50
2019-05-13T14:52:22.258Z,14.60
2019-05-13T14:54:51.501Z,14.40
2019-05-13T14:57:21.812Z,14.20
2019-05-13T14:59:51.504Z,14.10
2019-05-13T15:02:20.707Z,14.20
2019-05-13T15:04:52.158Z,14.10
2019-05-13T15:07:21.668Z,14.30
2019-05-13T15:09:51.623Z,14.30
2019-05-13T15:12:21.670Z,14.20
2019-05-13T15:14:52.351Z,14.10
2019-05-13T15:17:21.897Z,14.10
2019-05-13T15:19:52.455Z,14.00
2019-05-13T15:22:22.669Z,13.70
2019-05-13T15:24:51.993Z,13.60
2019-05-13T15:27:22.278Z,13.80
2019-05-13T15:29:51.842Z,13.80
2019-05-13T15:32:21.741Z,13.90
2019-05-13T15:34:51.992Z,13.70
2019-05-13T15:37:21.982Z,13.60
2019-05-13T15:39:51.905Z,14.20
2019-05-13T15:42:21.463Z,14.70
2019-05-13T15:44:52.526Z,15.00
2019-05-13T15:47:25.805Z,15.00
2019-05-13T15:49:51.797Z,14.70
2019-05-13T15:52:22.648Z,14.50
2019-05-13T15:54:52.324Z,14.30
2019-05-13T15:57:21.404Z,14.20
2019-05-13T15:59:51.761Z,14.20
2019-05-13T16:02:22.666Z,14.30
2019-05-13T16:05:00.390Z,14.40
2019-05-13T16:07:22.999Z,14.50
2019-05-13T16:09:52.588Z,14.60
2019-05-13T16:12:21.863Z,14.50
2019-05-13T16:14:51.611Z,14.70
2019-05-13T16:17:30.617Z,14.70
2019-05-13T16:19:53.558Z,14.70
2019-05-13T16:22:23.087Z,14.60
2019-05-13T16:24:52.409Z,14.30
2019-05-13T16:27:21.714Z,14.10
2019-05-13T16:29:51.803Z,14.00
2019-05-13T16:32:22.684Z,14.00
2019-05-13T16:34:52.130Z,14.00
2019-05-13T16:37:22.025Z,13.90
2019-05-13T16:39:51.979Z,13.90
2019-05-13T16:42:22.535Z,14.00
2019-05-13T16:44:52.526Z,14.10
2019-05-13T16:47:21.376Z,14.10
2019-05-13T16:49:50.876Z,14.20
2019-05-13T16:52:22.073Z,14.20
2019-05-13T16:54:53.176Z,14.00
2019-05-13T16:57:22.071Z,13.90
2019-05-13T16:59:51.686Z,13.90
2019-05-13T17:02:20.720Z,13.80
2019-05-13T17:04:52.108Z,13.70
2019-05-13T17:07:21.367Z,13.70
2019-05-13T17:09:52.107Z,13.80
2019-05-13T17:12:21.261Z,13.80
2019-05-13T17:14:52.319Z,13.80
2019-05-13T17:17:21.942Z,13.80
2019-05-13T17:19:53.719Z,13.80
2019-05-13T17:22:21.871Z,13.90
2019-05-13T17:24:51.874Z,13.90
2019-05-13T17:27:21.402Z,13.80
2019-05-13T17:29:51.616Z,13.80
2019-05-13T17:32:22.261Z,13.70
2019-05-13T17:34:51.553Z,13.60
2019-05-13T17:37:22.083Z,13.50
2019-05-13T17:39:51.241Z,13.40
2019-05-13T17:42:21.438Z,13.30
2019-05-13T17:44:51.628Z,13.10
2019-05-13T17:47:21.877Z,13.00
2019-05-13T17:49:52.156Z,12.90
2019-05-13T17:52:22.113Z,13.00
2019-05-13T17:54:51.820Z,12.90
2019-05-13T17:57:21.607Z,12.80
2019-05-13T17:59:52.111Z,12.80
2019-05-13T18:02:21.081Z,12.80
2019-05-13T18:04:52.119Z,12.70
2019-05-13T18:07:21.468Z,12.70
2019-05-13T18:09:52.054Z,12.70
2019-05-13T18:12:22.346Z,12.70
2019-05-13T18:14:51.668Z,12.60
2019-05-13T18:17:21.555Z,12.60
2019-05-13T18:19:51.514Z,12.60
2019-05-13T18:22:20.571Z,12.50
2019-05-13T18:24:51.824Z,12.40
2019-05-13T18:27:22.140Z,12.50
2019-05-13T18:29:51.321Z,12.30
2019-05-13T18:32:21.438Z,12.10
2019-05-13T18:34:50.692Z,12.00
2019-05-13T18:37:22.130Z,12.00
2019-05-13T18:39:52.076Z,11.90
2019-05-13T18:42:22.359Z,11.90
2019-05-13T18:44:52.236Z,11.80
2019-05-13T18:47:22.135Z,11.80
2019-05-13T18:49:51.340Z,11.90
2019-05-13T18:52:22.163Z,11.90
2019-05-13T18:54:51.519Z,11.80
2019-05-13T18:57:21.274Z,11.80
2019-05-13T18:59:52.057Z,11.70
2019-05-13T19:02:21.385Z,11.50
2019-05-13T19:04:52.224Z,11.50
2019-05-13T19:07:21.875Z,11.40
2019-05-13T19:09:52.279Z,11.40
2019-05-13T19:12:21.938Z,11.40
2019-05-13T19:14:51.687Z,11.40
2019-05-13T19:17:22.397Z,11.40
2019-05-13T19:19:51.511Z,11.20
2019-05-13T19:22:21.401Z,11.00
2019-05-13T19:24:51.768Z,10.80
2019-05-13T19:27:21.607Z,10.80
2019-05-13T19:29:52.206Z,10.70
2019-05-13T19:32:21.914Z,10.50
2019-05-13T19:34:51.661Z,10.40
2019-05-13T19:37:22.449Z,10.40
2019-05-13T19:39:51.866Z,10.50
2019-05-13T19:42:22.356Z,10.40
2019-05-13T19:44:51.623Z,10.30
2019-05-13T19:47:20.474Z,10.30
2019-05-13T19:49:52.155Z,10.30
2019-05-13T19:52:21.384Z,10.40
2019-05-13T19:54:51.414Z,10.30
2019-05-13T19:57:21.315Z,10.30
2019-05-13T19:59:50.243Z,10.10
2019-05-13T20:02:19.060Z,9.90
2019-05-13T20:04:47.966Z,9.80
2019-05-13T20:07:17.127Z,9.80
2019-05-13T20:09:45.996Z,9.80
2019-05-13T20:12:15.877Z,9.70
2019-05-13T20:14:44.728Z,9.80
2019-05-13T20:17:13.856Z,9.70
2019-05-13T20:19:50.147Z,9.60
2019-05-13T20:22:13.661Z,9.40
2019-05-13T20:24:42.767Z,9.30
2019-05-13T20:27:12.084Z,9.30
2019-05-13T20:29:41.806Z,9.10
2019-05-13T20:32:11.767Z,9.10
2019-05-13T20:34:40.664Z,9.10
2019-05-13T20:37:12.225Z,9.00
2019-05-13T20:39:42.455Z,9.10
2019-05-13T20:42:12.485Z,9.30
2019-05-13T20:44:42.058Z,9.30
2019-05-13T20:47:10.967Z,9.30
2019-05-13T20:49:41.680Z,9.50
2019-05-13T20:52:14.440Z,9.50
2019-05-13T20:54:41.723Z,9.50
2019-05-13T20:57:10.870Z,9.50
2019-05-13T20:59:41.383Z,9.40
2019-05-13T21:02:12.438Z,9.50
2019-05-13T21:04:40.879Z,9.70
2019-05-13T21:07:09.919Z,9.70
2019-05-13T21:09:38.704Z,9.70
2019-05-13T21:12:08.947Z,9.60
2019-05-13T21:14:38.611Z,9.70
2019-05-13T21:17:07.587Z,9.70
2019-05-13T21:19:39.733Z,9.70
2019-05-13T21:22:06.876Z,9.80
2019-05-13T21:24:35.648Z,9.80
2019-05-13T21:27:04.409Z,9.80
2019-05-13T21:29:33.476Z,9.70
2019-05-13T21:32:02.529Z,9.70
2019-05-13T21:34:31.705Z,9.70
2019-05-13T21:37:02.282Z,9.80
2019-05-13T21:39:31.980Z,9.70
2019-05-13T21:42:02.320Z,9.70
2019-05-13T21:44:32.666Z,9.70
2019-05-13T21:47:02.363Z,9.60
2019-05-13T21:49:31.914Z,9.60
2019-05-13T21:52:01.271Z,9.50
2019-05-13T21:54:33.302Z,9.30
2019-05-13T21:57:02.216Z,9.20
2019-05-13T21:59:31.974Z,9.10
2019-05-13T22:02:02.124Z,9.10
2019-05-13T22:04:31.075Z,8.90
2019-05-13T22:07:01.489Z,8.60
2019-05-13T22:09:31.736Z,8.50
2019-05-13T22:12:01.812Z,8.50
2019-05-13T22:14:32.014Z,8.60
2019-05-13T22:17:01.728Z,8.50
2019-05-13T22:19:31.577Z,8.40
2019-05-13T22:22:02.244Z,8.40
2019-05-13T22:24:31.464Z,8.20
2019-05-13T22:27:01.997Z,8.10
2019-05-13T22:29:32.135Z,8.10
2019-05-13T22:32:02.008Z,8.00
2019-05-13T22:34:31.908Z,7.90
2019-05-13T22:37:02.470Z,7.80
2019-05-13T22:39:34.548Z,7.90
2019-05-13T22:42:02.533Z,8.10
2019-05-13T22:44:32.404Z,8.10
2019-05-13T22:47:02.590Z,7.90
2019-05-13T22:49:31.561Z,7.80
2019-05-13T22:52:01.705Z,7.80
2019-05-13T22:54:31.871Z,7.60
2019-05-13T22:57:01.168Z,7.50
2019-05-13T22:59:32.187Z,7.40
2019-05-13T23:02:00.788Z,7.30
2019-05-13T23:04:31.417Z,7.30
2019-05-13T23:07:01.297Z,7.50
2019-05-13T23:09:32.158Z,7.70
2019-05-13T23:12:01.779Z,7.50
2019-05-13T23:14:30.933Z,7.40
2019-05-13T23:17:01.924Z,7.20
2019-05-13T23:19:32.324Z,7.20
2019-05-13T23:22:01.693Z,7.10
2019-05-13T23:24:31.143Z,7.00
2019-05-13T23:27:02.116Z,7.00
2019-05-13T23:29:31.896Z,6.90
2019-05-13T23:32:01.442Z,6.80
2019-05-13T23:34:31.854Z,6.80
2019-05-13T23:37:01.101Z,6.70
2019-05-13T23:39:31.978Z,6.70
2019-05-13T23:42:01.420Z,6.70
2019-05-13T23:44:32.201Z,6.60
2019-05-13T23:47:00.908Z,6.60
2019-05-13T23:49:31.701Z,6.70
2019-05-13T23:52:02.501Z,6.70
2019-05-13T23:54:31.661Z,6.60
2019-05-13T23:57:01.232Z,6.70
2019-05-13T23:59:31.243Z,6.60
